createdAt,value
2023-01-28T00:02:01.469Z,100273.41
2023-01-28T00:04:28.476Z,100279.31
2023-01-28T00:06:56.358Z,100268.16
2023-01-28T00:09:24.083Z,100277.84
2023-01-28T00:11:52.227Z,100278.00
2023-01-28T00:14:19.895Z,100279.13
2023-01-28T00:16:47.703Z,100279.13
2023-01-28T00:19:15.678Z,100285.84
2023-01-28T00:21:45.201Z,100272.47
2023-01-28T00:24:13.098Z,100286.56
2023-01-28T00:26:42.989Z,100292.09
2023-01-28T00:29:11.683Z,100288.91
2023-01-28T00:31:41.043Z,100288.13
2023-01-28T00:34:09.590Z,100295.41
2023-01-28T00:36:39.470Z,100297.81
2023-01-28T00:39:14.640Z,100297.22
2023-01-28T00:41:42.597Z,100300.69
2023-01-28T00:44:10.560Z,100306.63
2023-01-28T00:46:38.371Z,100304.63
2023-01-28T00:49:06.180Z,100301.00
2023-01-28T00:51:34.926Z,100300.28
2023-01-28T00:54:02.916Z,100312.84
2023-01-28T00:56:32.536Z,100314.22
2023-01-28T00:59:02.060Z,100302.56
2023-01-28T01:01:30.002Z,100299.84
2023-01-28T01:04:03.288Z,100305.75
2023-01-28T01:06:34.282Z,100312.28
2023-01-28T01:09:05.639Z,100307.06
2023-01-28T01:11:34.998Z,100313.84
2023-01-28T01:14:05.397Z,100317.94
2023-01-28T01:16:35.477Z,100314.81
2023-01-28T01:19:03.959Z,100314.75
2023-01-28T01:21:32.098Z,100326.00
2023-01-28T01:24:00.124Z,100315.97
2023-01-28T01:26:28.193Z,100326.53
2023-01-28T01:28:56.290Z,100323.28
2023-01-28T01:31:24.160Z,100327.75
2023-01-28T01:33:53.395Z,100329.31
2023-01-28T01:36:22.260Z,100325.69
2023-01-28T01:38:55.545Z,100328.28
2023-01-28T01:41:30.413Z,100334.06
2023-01-28T01:44:01.024Z,100331.38
2023-01-28T01:46:48.319Z,100327.00
2023-01-28T01:49:28.412Z,100330.53
2023-01-28T01:52:07.975Z,100335.03
2023-01-28T01:54:38.953Z,100334.75
2023-01-28T01:57:10.272Z,100338.69
2023-01-28T01:59:39.703Z,100333.97
2023-01-28T02:02:09.848Z,100331.78
2023-01-28T02:04:44.860Z,100339.44
2023-01-28T02:07:15.626Z,100335.84
2023-01-28T02:09:43.531Z,100327.34
2023-01-28T02:12:16.358Z,100332.22
2023-01-28T02:15:09.690Z,100332.78
2023-01-28T02:17:38.191Z,100335.69
2023-01-28T02:20:09.677Z,100330.66
2023-01-28T02:23:05.616Z,100338.09
2023-01-28T02:25:44.100Z,100344.91
2023-01-28T02:28:22.587Z,100333.38
2023-01-28T02:31:19.851Z,100344.81
2023-01-28T02:33:55.557Z,100350.31
2023-01-28T02:36:54.815Z,100349.81
2023-01-28T02:39:27.385Z,100345.19
2023-01-28T02:42:27.622Z,100349.31
2023-01-28T02:44:55.655Z,100340.69
2023-01-28T02:47:41.792Z,100347.44
2023-01-28T02:50:14.585Z,100348.56
2023-01-28T02:53:38.837Z,100349.09
2023-01-28T02:56:40.256Z,100343.91
2023-01-28T02:59:31.094Z,100344.56
2023-01-28T03:02:20.617Z,100340.13
2023-01-28T03:05:28.859Z,100339.88
2023-01-28T03:07:58.145Z,100348.06
2023-01-28T03:10:28.527Z,100353.78
2023-01-28T03:13:18.079Z,100346.84
2023-01-28T03:16:09.022Z,100352.94
2023-01-28T03:19:06.859Z,100354.16
2023-01-28T03:22:01.272Z,100351.13
2023-01-28T03:24:52.195Z,100351.94
2023-01-28T03:27:43.204Z,100364.38
2023-01-28T03:30:41.197Z,100363.53
2023-01-28T03:33:29.074Z,100361.94
2023-01-28T03:36:15.571Z,100356.91
2023-01-28T03:38:43.863Z,100349.78
2023-01-28T03:41:12.340Z,100356.22
2023-01-28T03:43:40.343Z,100364.28
2023-01-28T03:46:09.935Z,100358.56
2023-01-28T03:48:37.788Z,100356.09
2023-01-28T03:51:05.712Z,100359.25
2023-01-28T03:53:35.422Z,100354.75
2023-01-28T03:56:05.034Z,100360.66
2023-01-28T03:58:53.149Z,100354.13
2023-01-28T04:01:21.596Z,100352.19
2023-01-28T04:03:49.596Z,100356.09
2023-01-28T04:06:17.565Z,100347.81
2023-01-28T04:08:49.257Z,100358.84
2023-01-28T04:11:19.405Z,100360.97
2023-01-28T04:13:49.281Z,100365.00
2023-01-28T04:16:18.241Z,100365.59
2023-01-28T04:18:46.619Z,100367.78
2023-01-28T04:21:14.545Z,100366.78
2023-01-28T04:23:42.429Z,100364.19
2023-01-28T04:26:12.394Z,100368.75
2023-01-28T04:28:40.184Z,100372.56
2023-01-28T04:31:08.497Z,100372.03
2023-01-28T04:33:36.437Z,100362.47
2023-01-28T04:36:03.554Z,100378.94
2023-01-28T04:38:31.339Z,100374.47
2023-01-28T04:40:59.387Z,100379.09
2023-01-28T04:43:27.268Z,100381.47
2023-01-28T04:45:55.058Z,100389.81
2023-01-28T04:48:23.912Z,100391.19
2023-01-28T04:50:51.988Z,100391.47
2023-01-28T04:53:19.148Z,100394.47
2023-01-28T04:55:46.972Z,100399.13
2023-01-28T04:58:15.107Z,100389.63
2023-01-28T05:00:43.017Z,100397.19
2023-01-28T05:03:10.962Z,100398.16
2023-01-28T05:05:39.344Z,100394.63
2023-01-28T05:08:07.183Z,100399.03
2023-01-28T05:10:35.005Z,100409.81
2023-01-28T05:13:03.914Z,100400.22
2023-01-28T05:15:31.120Z,100397.72
2023-01-28T05:18:00.181Z,100400.88
2023-01-28T05:20:27.587Z,100407.75
2023-01-28T05:22:57.088Z,100405.47
2023-01-28T05:25:25.029Z,100397.53
2023-01-28T05:27:53.586Z,100405.53
2023-01-28T05:30:22.239Z,100411.63
2023-01-28T05:32:50.445Z,100411.19
2023-01-28T05:35:19.427Z,100410.81
2023-01-28T05:37:49.222Z,100415.09
2023-01-28T05:40:16.731Z,100413.53
2023-01-28T05:42:48.597Z,100419.16
2023-01-28T05:45:18.240Z,100420.13
2023-01-28T05:47:46.307Z,100414.56
2023-01-28T05:50:15.484Z,100425.25
2023-01-28T05:52:44.050Z,100420.00
2023-01-28T05:55:12.143Z,100426.47
2023-01-28T05:57:39.146Z,100415.34
2023-01-28T06:00:06.971Z,100437.84
2023-01-28T06:02:34.856Z,100434.97
2023-01-28T06:05:03.975Z,100436.34
2023-01-28T06:07:31.831Z,100442.19
2023-01-28T06:10:02.404Z,100433.34
2023-01-28T06:12:30.362Z,100439.38
2023-01-28T06:15:00.064Z,100436.47
2023-01-28T06:17:28.088Z,100439.75
2023-01-28T06:19:55.275Z,100446.72
2023-01-28T06:22:22.557Z,100444.13
2023-01-28T06:24:50.516Z,100442.38
2023-01-28T06:27:18.488Z,100441.56
2023-01-28T06:29:45.451Z,100459.06
2023-01-28T06:32:13.885Z,100451.56
2023-01-28T06:34:41.074Z,100452.19
2023-01-28T06:37:08.139Z,100462.59
2023-01-28T06:39:36.175Z,100467.34
2023-01-28T06:42:03.269Z,100466.22
2023-01-28T06:44:30.195Z,100475.13
2023-01-28T06:47:01.283Z,100472.75
2023-01-28T06:49:29.256Z,100478.91
2023-01-28T06:51:56.327Z,100480.78
2023-01-28T06:54:24.994Z,100479.56
2023-01-28T06:56:52.976Z,100490.38
2023-01-28T06:59:20.824Z,100489.31
2023-01-28T07:01:48.656Z,100483.81
2023-01-28T07:04:16.531Z,100493.16
2023-01-28T07:06:44.853Z,100490.63
2023-01-28T07:09:12.151Z,100493.41
2023-01-28T07:11:40.382Z,100495.31
2023-01-28T07:14:07.360Z,100498.19
2023-01-28T07:16:34.266Z,100507.25
2023-01-28T07:19:01.376Z,100504.13
2023-01-28T07:21:29.212Z,100509.03
2023-01-28T07:23:57.078Z,100509.94
2023-01-28T07:26:25.150Z,100504.38
2023-01-28T07:28:52.065Z,100522.38
2023-01-28T07:31:20.179Z,100515.81
2023-01-28T07:33:48.383Z,100521.13
2023-01-28T07:36:16.379Z,100522.53
2023-01-28T07:38:43.383Z,100522.50
2023-01-28T07:41:11.361Z,100516.78
2023-01-28T07:43:38.271Z,100527.34
2023-01-28T07:46:06.888Z,100526.59
2023-01-28T07:48:36.147Z,100529.09
2023-01-28T07:51:03.323Z,100528.97
2023-01-28T07:53:30.294Z,100537.28
2023-01-28T07:56:02.015Z,100539.31
2023-01-28T07:58:29.240Z,100552.56
2023-01-28T08:00:59.789Z,100546.53
2023-01-28T08:03:29.104Z,100550.63
2023-01-28T08:05:57.057Z,100531.78
2023-01-28T08:08:25.468Z,100541.88
2023-01-28T08:10:56.285Z,100539.81
2023-01-28T08:13:23.509Z,100548.69
2023-01-28T08:15:56.899Z,100543.22
2023-01-28T08:18:24.968Z,100539.47
2023-01-28T08:20:55.957Z,100541.09
2023-01-28T08:23:24.524Z,100547.72
2023-01-28T08:25:53.191Z,100545.22
2023-01-28T08:28:21.108Z,100552.28
2023-01-28T08:30:48.905Z,100550.53
2023-01-28T08:33:17.318Z,100549.94
2023-01-28T08:35:44.606Z,100562.56
2023-01-28T08:38:13.360Z,100560.06
2023-01-28T08:40:40.407Z,100562.63
2023-01-28T08:43:07.524Z,100560.91
2023-01-28T08:45:35.608Z,100562.63
2023-01-28T08:48:08.464Z,100559.31
2023-01-28T08:50:37.055Z,100569.44
2023-01-28T08:53:06.816Z,100566.75
2023-01-28T08:55:34.843Z,100571.94
2023-01-28T08:58:05.109Z,100575.38
2023-01-28T09:00:34.069Z,100570.16
2023-01-28T09:03:04.590Z,100575.69
2023-01-28T09:05:35.840Z,100571.94
2023-01-28T09:08:08.288Z,100573.09
2023-01-28T09:10:41.387Z,100575.81
2023-01-28T09:13:14.733Z,100574.75
2023-01-28T09:15:43.016Z,100576.59
2023-01-28T09:18:11.152Z,100575.59
2023-01-28T09:20:38.842Z,100577.47
2023-01-28T09:23:06.869Z,100577.09
2023-01-28T09:25:36.439Z,100581.56
2023-01-28T09:28:05.283Z,100584.56
2023-01-28T09:30:34.847Z,100587.72
2023-01-28T09:33:04.269Z,100585.97
2023-01-28T09:35:31.253Z,100587.06
2023-01-28T09:37:59.270Z,100586.34
2023-01-28T09:40:26.948Z,100586.56
2023-01-28T09:43:18.346Z,100583.03
2023-01-28T09:45:51.379Z,100589.91
2023-01-28T09:48:21.824Z,100577.94
2023-01-28T09:50:56.838Z,100586.97
2023-01-28T09:53:28.513Z,100575.69
2023-01-28T09:56:01.688Z,100581.72
2023-01-28T09:58:29.542Z,100577.94
2023-01-28T10:01:10.056Z,100584.28
2023-01-28T10:03:39.955Z,100589.78
2023-01-28T10:06:14.683Z,100580.69
2023-01-28T10:09:00.468Z,100581.97
2023-01-28T10:12:06.075Z,100595.03
2023-01-28T10:14:35.827Z,100589.09
2023-01-28T10:17:06.457Z,100591.78
2023-01-28T10:20:00.699Z,100589.50
2023-01-28T10:22:39.819Z,100590.66
2023-01-28T10:25:18.963Z,100589.81
2023-01-28T10:27:50.263Z,100591.88
2023-01-28T10:30:25.688Z,100594.38
2023-01-28T10:33:01.208Z,100593.53
2023-01-28T10:35:34.943Z,100592.38
2023-01-28T10:38:08.309Z,100583.63
2023-01-28T10:40:36.578Z,100582.28
2023-01-28T10:43:03.516Z,100585.78
2023-01-28T10:45:36.708Z,100577.75
2023-01-28T10:48:06.226Z,100577.34
2023-01-28T10:50:35.760Z,100580.13
2023-01-28T10:53:05.640Z,100575.56
2023-01-28T10:55:47.072Z,100580.31
2023-01-28T10:58:29.361Z,100578.66
2023-01-28T11:01:00.804Z,100575.47
2023-01-28T11:03:32.200Z,100581.75
2023-01-28T11:06:00.323Z,100579.34
2023-01-28T11:08:31.256Z,100580.72
2023-01-28T11:10:58.634Z,100581.41
2023-01-28T11:13:29.301Z,100576.41
2023-01-28T11:16:16.625Z,100587.81
2023-01-28T11:18:55.810Z,100588.00
2023-01-28T11:21:29.608Z,100591.13
2023-01-28T11:24:02.376Z,100584.22
2023-01-28T11:26:32.989Z,100583.56
2023-01-28T11:29:00.094Z,100589.06
2023-01-28T11:31:29.444Z,100588.03
2023-01-28T11:33:59.725Z,100581.97
2023-01-28T11:36:29.287Z,100581.72
2023-01-28T11:39:16.625Z,100587.28
2023-01-28T11:41:44.475Z,100585.06
2023-01-28T11:44:20.973Z,100581.13
2023-01-28T11:47:07.743Z,100587.84
2023-01-28T11:49:51.473Z,100586.13
2023-01-28T11:53:07.366Z,100585.59
2023-01-28T11:56:00.139Z,100584.25
2023-01-28T11:58:51.431Z,100587.09
2023-01-28T12:01:22.067Z,100584.94
2023-01-28T12:04:04.644Z,100579.59
2023-01-28T12:06:54.276Z,100576.78
2023-01-28T12:09:43.835Z,100589.84
2023-01-28T12:12:30.279Z,100581.59
2023-01-28T12:15:04.096Z,100577.34
2023-01-28T12:17:53.155Z,100578.97
2023-01-28T12:20:23.483Z,100586.69
2023-01-28T12:23:00.617Z,100587.56
2023-01-28T12:25:46.315Z,100576.31
2023-01-28T12:28:23.674Z,100579.91
2023-01-28T12:31:31.892Z,100574.75
2023-01-28T12:34:05.625Z,100578.28
2023-01-28T12:36:39.016Z,100579.91
2023-01-28T12:39:17.638Z,100578.72
2023-01-28T12:41:56.248Z,100573.34
2023-01-28T12:44:36.178Z,100577.31
2023-01-28T12:47:16.189Z,100574.56
2023-01-28T12:49:51.311Z,100577.13
2023-01-28T12:52:38.244Z,100578.53
2023-01-28T12:55:16.363Z,100577.72
2023-01-28T12:57:45.165Z,100578.56
2023-01-28T13:00:25.854Z,100574.13
2023-01-28T13:03:20.457Z,100578.47
2023-01-28T13:05:54.187Z,100583.00
2023-01-28T13:08:25.853Z,100583.75
2023-01-28T13:10:57.604Z,100584.53
2023-01-28T13:13:31.394Z,100592.66
2023-01-28T13:16:00.812Z,100592.38
2023-01-28T13:18:33.275Z,100592.19
2023-01-28T13:21:01.972Z,100598.41
2023-01-28T13:23:32.246Z,100605.25
2023-01-28T13:26:11.003Z,100604.00
2023-01-28T13:28:37.946Z,100602.81
2023-01-28T13:31:17.781Z,100602.59
2023-01-28T13:34:03.027Z,100612.63
2023-01-28T13:36:34.726Z,100607.75
2023-01-28T13:39:08.482Z,100611.22
2023-01-28T13:41:46.817Z,100613.31
2023-01-28T13:44:22.203Z,100620.19
2023-01-28T13:46:49.936Z,100619.97
2023-01-28T13:49:26.142Z,100615.00
2023-01-28T13:52:09.482Z,100619.47
2023-01-28T13:55:02.739Z,100621.88
2023-01-28T13:57:48.327Z,100630.28
2023-01-28T14:00:26.419Z,100625.97
2023-01-28T14:03:03.389Z,100623.22
2023-01-28T14:06:13.483Z,100634.28
2023-01-28T14:08:54.707Z,100622.16
2023-01-28T14:11:22.500Z,100631.59
2023-01-28T14:14:24.060Z,100642.66
2023-01-28T14:16:56.084Z,100642.59
2023-01-28T14:19:35.252Z,100643.44
2023-01-28T14:22:10.529Z,100639.44
2023-01-28T14:24:40.130Z,100642.88
2023-01-28T14:27:37.758Z,100643.88
2023-01-28T14:30:45.472Z,100649.81
2023-01-28T14:33:13.103Z,100659.72
2023-01-28T14:35:48.679Z,100658.44
2023-01-28T14:38:22.415Z,100661.34
2023-01-28T14:40:52.535Z,100663.34
2023-01-28T14:43:24.470Z,100666.44
2023-01-28T14:46:08.959Z,100671.81
2023-01-28T14:49:01.447Z,100669.56
2023-01-28T14:51:43.653Z,100676.97
2023-01-28T14:54:54.764Z,100675.94
2023-01-28T14:57:34.172Z,100679.56
2023-01-28T15:00:08.589Z,100677.16
2023-01-28T15:02:45.047Z,100680.03
2023-01-28T15:05:19.669Z,100691.00
2023-01-28T15:07:49.613Z,100688.59
2023-01-28T15:10:26.984Z,100690.78
2023-01-28T15:13:00.991Z,100690.59
2023-01-28T15:15:36.976Z,100694.34
2023-01-28T15:18:14.496Z,100693.16
2023-01-28T15:20:47.974Z,100696.69
2023-01-28T15:23:19.683Z,100696.25
2023-01-28T15:25:47.733Z,100715.66
2023-01-28T15:28:45.025Z,100714.91
2023-01-28T15:31:28.581Z,100712.16
2023-01-28T15:34:01.815Z,100715.06
2023-01-28T15:36:30.201Z,100717.63
2023-01-28T15:38:59.084Z,100719.38
2023-01-28T15:41:39.160Z,100716.31
2023-01-28T15:44:08.127Z,100726.72
2023-01-28T15:46:35.467Z,100721.81
2023-01-28T15:49:04.633Z,100736.50
2023-01-28T15:51:36.919Z,100734.31
2023-01-28T15:54:09.525Z,100737.84
2023-01-28T15:56:38.340Z,100740.13
2023-01-28T15:59:28.044Z,100741.69
2023-01-28T16:02:19.768Z,100749.25
2023-01-28T16:05:00.980Z,100747.94
2023-01-28T16:07:33.493Z,100762.13
2023-01-28T16:10:04.275Z,100761.84
2023-01-28T16:12:33.274Z,100757.63
2023-01-28T16:15:03.343Z,100768.22
2023-01-28T16:17:41.536Z,100766.47
2023-01-28T16:20:25.432Z,100769.69
2023-01-28T16:22:55.885Z,100776.72
2023-01-28T16:25:23.937Z,100778.44
2023-01-28T16:27:53.807Z,100781.59
2023-01-28T16:30:21.065Z,100779.97
2023-01-28T16:32:49.444Z,100784.44
2023-01-28T16:35:25.121Z,100786.75
2023-01-28T16:37:53.100Z,100784.25
2023-01-28T16:40:23.695Z,100789.66
2023-01-28T16:42:55.552Z,100781.97
2023-01-28T16:45:29.628Z,100793.16
2023-01-28T16:47:57.031Z,100797.97
2023-01-28T16:50:25.019Z,100795.16
2023-01-28T16:52:54.918Z,100809.22
2023-01-28T16:55:23.154Z,100796.28
2023-01-28T16:57:58.449Z,100797.06
2023-01-28T17:00:28.094Z,100795.91
2023-01-28T17:02:56.279Z,100802.41
2023-01-28T17:05:27.239Z,100808.25
2023-01-28T17:07:59.305Z,100809.03
2023-01-28T17:10:27.046Z,100818.06
2023-01-28T17:12:59.104Z,100815.38
2023-01-28T17:15:28.768Z,100823.78
2023-01-28T17:17:56.867Z,100822.16
2023-01-28T17:20:25.071Z,100818.56
2023-01-28T17:22:52.533Z,100833.84
2023-01-28T17:25:20.404Z,100838.34
2023-01-28T17:27:51.019Z,100833.59
2023-01-28T17:30:20.915Z,100835.63
2023-01-28T17:32:48.883Z,100844.38
2023-01-28T17:35:20.174Z,100837.38
2023-01-28T17:37:48.523Z,100852.09
2023-01-28T17:40:18.592Z,100844.41
2023-01-28T17:42:50.296Z,100843.50
2023-01-28T17:45:23.942Z,100851.19
2023-01-28T17:47:55.189Z,100845.81
2023-01-28T17:50:22.654Z,100841.47
2023-01-28T17:53:00.104Z,100844.47
2023-01-28T17:55:32.324Z,100843.50
2023-01-28T17:58:00.740Z,100842.28
2023-01-28T18:00:27.912Z,100857.38
2023-01-28T18:02:56.118Z,100861.16
2023-01-28T18:05:23.440Z,100857.38
2023-01-28T18:07:52.747Z,100854.09
2023-01-28T18:10:20.953Z,100862.75
2023-01-28T18:12:49.478Z,100861.22
2023-01-28T18:15:17.083Z,100871.63
2023-01-28T18:17:46.029Z,100867.34
2023-01-28T18:20:13.398Z,100875.00
2023-01-28T18:22:40.600Z,100874.03
2023-01-28T18:25:11.688Z,100869.81
2023-01-28T18:27:38.644Z,100878.66
2023-01-28T18:30:07.057Z,100873.88
2023-01-28T18:32:35.084Z,100879.66
2023-01-28T18:35:02.562Z,100877.47
2023-01-28T18:37:30.147Z,100892.50
2023-01-28T18:39:59.026Z,100891.28
2023-01-28T18:42:27.410Z,100892.97
2023-01-28T18:44:55.491Z,100897.00
2023-01-28T18:47:23.346Z,100894.09
2023-01-28T18:49:51.608Z,100900.38
2023-01-28T18:52:19.494Z,100903.59
2023-01-28T18:54:46.467Z,100896.25
2023-01-28T18:57:15.277Z,100898.84
2023-01-28T18:59:42.536Z,100902.03
2023-01-28T19:02:13.911Z,100897.63
2023-01-28T19:04:40.865Z,100899.63
2023-01-28T19:07:11.419Z,100904.22
2023-01-28T19:09:39.592Z,100901.78
2023-01-28T19:12:09.535Z,100903.44
2023-01-28T19:14:37.212Z,100910.47
2023-01-28T19:17:05.790Z,100912.78
2023-01-28T19:19:35.006Z,100913.78
2023-01-28T19:22:02.785Z,100916.88
2023-01-28T19:24:29.885Z,100920.72
2023-01-28T19:26:59.526Z,100920.06
2023-01-28T19:29:28.875Z,100914.50
2023-01-28T19:31:55.956Z,100906.06
2023-01-28T19:34:24.230Z,100921.06
2023-01-28T19:36:52.428Z,100918.19
2023-01-28T19:39:20.684Z,100922.31
2023-01-28T19:41:51.272Z,100922.78
2023-01-28T19:44:19.909Z,100929.44
2023-01-28T19:46:50.177Z,100928.25
2023-01-28T19:49:19.254Z,100929.63
2023-01-28T19:51:47.232Z,100930.84
2023-01-28T19:54:15.275Z,100938.75
2023-01-28T19:56:45.132Z,100934.31
2023-01-28T19:59:12.538Z,100934.53
2023-01-28T20:01:39.461Z,100939.66
2023-01-28T20:04:07.160Z,100935.63
2023-01-28T20:06:36.060Z,100935.00
2023-01-28T20:09:11.434Z,100940.88
2023-01-28T20:11:40.042Z,100937.47
2023-01-28T20:14:07.175Z,100935.31
2023-01-28T20:16:51.660Z,100931.38
2023-01-28T20:19:38.428Z,100938.25
2023-01-28T20:22:06.302Z,100938.06
2023-01-28T20:24:33.383Z,100941.78
2023-01-28T20:27:04.141Z,100940.63
2023-01-28T20:29:31.085Z,100934.41
2023-01-28T20:32:15.452Z,100949.38
2023-01-28T20:34:46.553Z,100943.91
2023-01-28T20:37:13.610Z,100949.44
2023-01-28T20:39:42.128Z,100956.13
2023-01-28T20:42:13.507Z,100950.66
2023-01-28T20:44:40.971Z,100955.53
2023-01-28T20:47:09.145Z,100959.09
2023-01-28T20:49:36.227Z,100961.38
2023-01-28T20:52:04.556Z,100963.97
2023-01-28T20:54:32.482Z,100972.09
2023-01-28T20:57:01.792Z,100970.84
2023-01-28T20:59:31.337Z,100974.38
2023-01-28T21:02:01.288Z,100970.63
2023-01-28T21:04:29.190Z,100968.81
2023-01-28T21:06:57.250Z,100967.81
2023-01-28T21:09:25.930Z,100974.16
2023-01-28T21:11:54.103Z,100970.81
2023-01-28T21:14:21.055Z,100969.41
2023-01-28T21:16:51.347Z,100974.72
2023-01-28T21:19:20.631Z,100979.09
2023-01-28T21:21:47.633Z,100979.88
2023-01-28T21:24:14.604Z,100978.69
2023-01-28T21:26:42.720Z,100986.72
2023-01-28T21:29:09.751Z,100991.66
2023-01-28T21:31:37.716Z,100988.88
2023-01-28T21:34:04.633Z,100988.56
2023-01-28T21:36:37.323Z,100995.03
2023-01-28T21:39:05.278Z,100994.50
2023-01-28T21:41:32.466Z,100991.16
2023-01-28T21:44:00.738Z,100989.53
2023-01-28T21:46:32.401Z,100992.50
2023-01-28T21:49:05.524Z,100995.78
2023-01-28T21:51:47.456Z,100981.00
2023-01-28T21:54:21.157Z,100997.97
2023-01-28T21:56:50.621Z,100994.06
2023-01-28T21:59:29.400Z,100997.81
2023-01-28T22:02:00.907Z,101002.00
2023-01-28T22:04:36.303Z,101000.00
2023-01-28T22:07:07.001Z,101001.53
2023-01-28T22:09:35.528Z,101004.88
2023-01-28T22:12:06.990Z,101009.66
2023-01-28T22:14:39.473Z,101001.78
2023-01-28T22:17:11.919Z,101008.44
2023-01-28T22:19:40.640Z,100997.91
2023-01-28T22:22:08.279Z,101007.69
2023-01-28T22:24:38.313Z,100997.53
2023-01-28T22:27:05.641Z,101004.38
2023-01-28T22:29:33.868Z,100996.75
2023-01-28T22:32:04.192Z,101008.19
2023-01-28T22:34:32.834Z,101004.91
2023-01-28T22:37:00.837Z,101007.47
2023-01-28T22:39:27.827Z,101002.84
2023-01-28T22:41:55.695Z,101008.25
2023-01-28T22:44:23.532Z,101005.22
2023-01-28T22:46:52.063Z,101012.28
2023-01-28T22:49:20.345Z,101009.91
2023-01-28T22:51:48.189Z,101010.19
2023-01-28T22:54:15.350Z,101012.50
2023-01-28T22:56:43.479Z,101013.13
2023-01-28T22:59:11.904Z,101004.97
2023-01-28T23:01:40.482Z,101016.84
2023-01-28T23:04:08.447Z,101014.34
2023-01-28T23:06:37.465Z,101019.75
2023-01-28T23:09:05.561Z,101020.13
2023-01-28T23:11:33.454Z,101015.34
2023-01-28T23:14:22.353Z,101017.72
2023-01-28T23:17:08.964Z,101014.72
2023-01-28T23:19:54.948Z,101022.28
2023-01-28T23:22:46.015Z,101021.56
2023-01-28T23:25:15.799Z,101023.31
2023-01-28T23:27:45.253Z,101026.75
2023-01-28T23:30:14.237Z,101032.53
2023-01-28T23:32:47.393Z,101036.88
2023-01-28T23:35:15.124Z,101032.31
2023-01-28T23:37:43.004Z,101029.41
2023-01-28T23:40:10.650Z,101023.94
2023-01-28T23:42:37.865Z,101028.25
2023-01-28T23:45:07.111Z,101023.41
2023-01-28T23:47:34.425Z,101028.81
2023-01-28T23:50:01.364Z,101030.28
2023-01-28T23:52:29.481Z,101031.56
2023-01-28T23:54:58.892Z,101029.91
2023-01-28T23:57:27.061Z,101032.34
2023-01-28T23:59:54.018Z,101034.00
